Time;durP1;ratioP1;P1;durP2;ratioP2;P2;SDS_P1;SDS_P2;PMS_P1;PMS_P2;Temp;Humidity;BMP_temperature;BMP_pressure;BME280_temperature;BME280_humidity;BME280_pressure;Samples;Min_cycle;Max_cycle;Signal;HPM_P1;HPM_P2
2021/07/31 00:00:41;;;;;;;6.15;4.30;;;19.60;91.10;;;;;;5019519;28;20598;-72
2021/07/31 00:03:06;;;;;;;4.93;4.30;;;19.60;91.10;;;;;;5002947;28;20022;-72
2021/07/31 00:05:32;;;;;;;7.72;5.00;;;19.60;91.40;;;;;;5017210;28;20587;-72
2021/07/31 00:07:58;;;;;;;6.28;4.50;;;19.60;91.40;;;;;;5013939;28;20038;-73
2021/07/31 00:10:23;;;;;;;4.95;4.38;;;19.50;91.40;;;;;;5020680;28;20500;-72
2021/07/31 00:12:49;;;;;;;8.23;4.05;;;19.50;91.40;;;;;;5018310;28;20100;-72
2021/07/31 00:15:15;;;;;;;5.60;3.97;;;19.50;91.50;;;;;;5017288;28;20045;-71
2021/07/31 00:17:40;;;;;;;6.63;4.90;;;19.40;91.40;;;;;;5018202;28;20441;-72
2021/07/31 00:20:07;;;;;;;7.25;4.45;;;19.40;91.80;;;;;;5015608;28;20032;-72
2021/07/31 00:22:32;;;;;;;5.97;4.03;;;19.40;91.50;;;;;;5017464;28;20022;-72
2021/07/31 00:24:58;;;;;;;7.10;4.60;;;19.30;91.20;;;;;;5013893;28;20033;-72
2021/07/31 00:27:25;;;;;;;4.95;3.85;;;19.30;91.40;;;;;;5016618;28;20503;-72
2021/07/31 00:29:51;;;;;;;6.00;3.83;;;19.40;91.30;;;;;;5015790;28;20080;-72
2021/07/31 00:32:17;;;;;;;6.03;4.28;;;19.30;91.20;;;;;;5016121;28;20385;-72
2021/07/31 00:34:43;;;;;;;6.15;4.38;;;19.30;91.20;;;;;;5017790;28;20492;-72
2021/07/31 00:37:08;;;;;;;5.50;4.18;;;19.30;91.30;;;;;;5013182;28;20041;-72
2021/07/31 00:39:38;;;;;;;5.05;4.18;;;19.20;91.20;;;;;;5017423;28;20051;-72
2021/07/31 00:42:08;;;;;;;5.50;4.00;;;19.20;91.10;;;;;;5014461;28;20040;-72
2021/07/31 00:44:34;;;;;;;5.68;4.40;;;19.10;91.10;;;;;;5017968;28;20465;-72
2021/07/31 00:47:02;;;;;;;4.97;3.60;;;19.10;91.00;;;;;;5014888;28;20043;-72
2021/07/31 00:49:29;;;;;;;3.85;3.20;;;19.10;90.70;;;;;;5018917;28;20056;-72
2021/07/31 00:51:55;;;;;;;4.85;3.03;;;19.10;90.60;;;;;;5018503;28;20036;-72
2021/07/31 00:54:21;;;;;;;5.63;3.33;;;19.00;90.30;;;;;;5016815;28;20400;-72
2021/07/31 00:56:48;;;;;;;4.03;3.15;;;19.00;90.10;;;;;;5015609;28;20064;-72
2021/07/31 00:59:13;;;;;;;5.07;3.20;;;19.00;90.20;;;;;;5016409;28;20034;-72
2021/07/31 01:01:41;;;;;;;4.07;3.05;;;19.00;90.20;;;;;;5017390;28;20443;-72
2021/07/31 01:04:06;;;;;;;4.22;2.75;;;18.90;90.10;;;;;;5021483;28;20038;-72
2021/07/31 01:06:32;;;;;;;7.15;3.45;;;18.90;90.10;;;;;;5017937;28;20030;-72
2021/07/31 01:08:59;;;;;;;4.60;3.10;;;19.00;90.00;;;;;;5016995;28;20144;-72
2021/07/31 01:11:25;;;;;;;5.78;3.35;;;19.00;90.10;;;;;;5019673;28;20026;-72
2021/07/31 01:13:51;;;;;;;5.47;3.10;;;19.00;89.90;;;;;;5017070;28;20044;-72
2021/07/31 01:16:17;;;;;;;5.65;3.42;;;18.90;90.10;;;;;;5020101;28;20042;-71
2021/07/31 01:18:43;;;;;;;4.35;2.88;;;18.90;90.10;;;;;;5019585;28;20025;-72
2021/07/31 01:21:09;;;;;;;6.38;3.78;;;18.80;90.20;;;;;;5016341;28;20680;-72
2021/07/31 01:23:35;;;;;;;5.43;3.53;;;18.80;90.40;;;;;;5019752;28;20041;-72
2021/07/31 01:26:00;;;;;;;7.38;4.30;;;18.80;90.40;;;;;;5022873;28;20029;-72
2021/07/31 01:28:26;;;;;;;7.28;5.18;;;18.80;90.50;;;;;;5017832;28;20124;-72
2021/07/31 01:30:52;;;;;;;8.18;5.40;;;18.80;90.80;;;;;;5017209;28;20092;-72
2021/07/31 01:33:18;;;;;;;8.20;6.07;;;18.70;91.10;;;;;;5019616;28;20076;-72
2021/07/31 01:35:44;;;;;;;9.15;6.15;;;18.70;91.30;;;;;;5017980;28;20030;-72
2021/07/31 01:38:09;;;;;;;9.45;5.65;;;18.70;91.50;;;;;;5018298;28;20483;-73
2021/07/31 01:40:35;;;;;;;8.85;5.82;;;18.70;91.30;;;;;;5016767;28;20034;-72
2021/07/31 01:43:01;;;;;;;9.65;6.30;;;18.70;91.60;;;;;;5016288;28;20116;-72
2021/07/31 01:45:27;;;;;;;9.32;7.07;;;18.70;91.90;;;;;;5018839;28;20688;-72
2021/07/31 01:47:53;;;;;;;9.50;6.93;;;18.60;92.10;;;;;;5016761;28;20131;-71
2021/07/31 01:50:19;;;;;;;7.97;5.60;;;18.50;92.30;;;;;;5020577;28;20034;-72
2021/07/31 01:52:46;;;;;;;6.68;5.32;;;18.40;92.30;;;;;;5020548;28;20056;-72
2021/07/31 01:55:12;;;;;;;6.82;5.43;;;18.50;92.30;;;;;;5020194;28;20095;-73
2021/07/31 01:57:38;;;;;;;6.38;4.68;;;18.40;92.30;;;;;;5014964;28;20109;-71
2021/07/31 02:00:05;;;;;;;7.45;4.60;;;18.40;92.10;;;;;;5019801;28;20598;-72
2021/07/31 02:02:31;;;;;;;8.85;4.65;;;18.40;91.90;;;;;;5019480;28;20037;-72
2021/07/31 02:04:56;;;;;;;5.05;3.67;;;18.40;91.70;;;;;;5019175;28;20045;-72
2021/07/31 02:07:22;;;;;;;5.88;4.03;;;18.40;91.70;;;;;;5018024;28;20124;-72
2021/07/31 02:09:48;;;;;;;6.63;4.00;;;18.40;91.60;;;;;;5021284;28;20033;-72
2021/07/31 02:12:14;;;;;;;5.45;3.72;;;18.30;91.50;;;;;;5018318;28;20119;-72
2021/07/31 02:14:40;;;;;;;4.07;3.47;;;18.30;91.40;;;;;;5017869;28;20419;-72
2021/07/31 02:17:06;;;;;;;4.00;3.00;;;18.30;91.20;;;;;;5016570;28;20396;-72
2021/07/31 02:19:32;;;;;;;6.53;2.83;;;18.20;91.00;;;;;;5016891;28;20029;-72
2021/07/31 02:21:58;;;;;;;3.70;2.72;;;18.20;91.10;;;;;;5018249;28;20021;-72
2021/07/31 02:24:24;;;;;;;4.32;2.33;;;18.20;91.00;;;;;;5019542;28;20076;-72
2021/07/31 02:26:50;;;;;;;6.10;2.85;;;18.20;90.80;;;;;;5019385;28;20045;-72
2021/07/31 02:29:16;;;;;;;5.75;2.70;;;18.20;90.70;;;;;;5017339;28;20029;-72
2021/07/31 02:31:42;;;;;;;5.55;3.03;;;18.20;90.70;;;;;;5019877;28;20041;-72
2021/07/31 02:34:08;;;;;;;4.80;2.63;;;18.20;90.50;;;;;;5016112;28;20021;-72
2021/07/31 02:36:34;;;;;;;6.43;2.85;;;18.20;90.40;;;;;;5015698;28;20038;-72
2021/07/31 02:38:59;;;;;;;3.40;2.50;;;18.10;90.70;;;;;;5016257;28;20059;-71
2021/07/31 02:41:25;;;;;;;4.10;2.40;;;18.10;90.50;;;;;;5020281;28;20025;-72
2021/07/31 02:43:50;;;;;;;5.70;2.30;;;18.10;90.40;;;;;;5017279;28;20033;-72
2021/07/31 02:46:16;;;;;;;4.72;2.40;;;18.00;90.30;;;;;;5019468;28;20040;-72
2021/07/31 02:48:42;;;;;;;5.45;2.53;;;18.10;90.30;;;;;;5017255;28;20385;-72
2021/07/31 02:51:10;;;;;;;3.83;2.20;;;18.00;90.20;;;;;;5017300;28;20029;-72
2021/07/31 02:53:36;;;;;;;5.90;2.25;;;18.00;90.30;;;;;;5019849;28;20059;-72
2021/07/31 02:56:01;;;;;;;3.28;2.05;;;18.00;90.40;;;;;;5019146;28;20029;-72
2021/07/31 02:58:30;;;;;;;3.53;2.10;;;18.00;90.30;;;;;;5016973;28;20030;-72
2021/07/31 03:00:56;;;;;;;5.10;2.00;;;18.00;90.30;;;;;;5019261;28;20030;-72
2021/07/31 03:03:22;;;;;;;4.80;2.33;;;18.00;89.40;;;;;;5017880;28;20170;-72
2021/07/31 03:05:55;;;;;;;5.82;2.60;;;18.00;89.30;;;;;;5019742;28;20061;-72
2021/07/31 03:08:21;;;;;;;3.90;1.88;;;18.00;88.70;;;;;;5013907;28;20030;-72
2021/07/31 03:10:52;;;;;;;4.75;2.10;;;17.90;88.80;;;;;;5019105;28;20125;-72
2021/07/31 03:13:18;;;;;;;;;;;17.90;88.80;;;;;;5019057;28;20033;-72
2021/07/31 03:15:43;;;;;;;4.22;2.05;;;17.90;88.70;;;;;;5016562;28;19913;-72
2021/07/31 03:18:09;;;;;;;6.88;2.50;;;17.80;89.20;;;;;;5016431;28;20029;-72
2021/07/31 03:20:35;;;;;;;5.07;2.20;;;17.80;89.00;;;;;;5021104;28;20032;-71
2021/07/31 03:23:00;;;;;;;3.00;2.15;;;17.80;89.20;;;;;;5016771;28;20019;-72
2021/07/31 03:25:26;;;;;;;8.13;2.60;;;17.80;89.00;;;;;;5015081;28;20096;-72
2021/07/31 03:27:52;;;;;;;4.97;2.40;;;17.80;89.50;;;;;;5015663;28;20030;-72
2021/07/31 03:30:17;;;;;;;3.60;2.10;;;17.80;89.40;;;;;;5018136;28;20044;-71
2021/07/31 03:32:43;;;;;;;6.00;2.20;;;17.70;89.50;;;;;;5015980;28;20109;-71
2021/07/31 03:35:09;;;;;;;5.07;2.50;;;17.70;89.60;;;;;;5016245;28;20037;-72
2021/07/31 03:37:34;;;;;;;4.82;2.30;;;17.70;89.70;;;;;;5017031;28;20484;-71
2021/07/31 03:40:02;;;;;;;4.25;2.63;;;17.70;89.80;;;;;;5018317;28;20061;-72
2021/07/31 03:42:28;;;;;;;5.20;2.72;;;17.70;89.90;;;;;;5015133;28;20030;-72
2021/07/31 03:44:53;;;;;;;6.25;2.63;;;17.70;89.90;;;;;;5017208;28;20040;-72
2021/07/31 03:47:19;;;;;;;4.80;2.50;;;17.80;89.70;;;;;;5018796;28;20270;-72
2021/07/31 03:49:44;;;;;;;5.75;2.30;;;17.80;89.40;;;;;;5013469;28;20499;-72
2021/07/31 03:52:10;;;;;;;4.85;2.30;;;17.80;88.90;;;;;;5014351;28;20196;-72
2021/07/31 03:54:37;;;;;;;5.18;2.67;;;17.70;89.10;;;;;;5017787;28;20036;-72
2021/07/31 03:57:03;;;;;;;5.18;2.35;;;17.60;89.40;;;;;;5013171;28;20430;-72
2021/07/31 03:59:28;;;;;;;6.13;2.05;;;17.70;89.20;;;;;;5017852;28;20026;-71
2021/07/31 04:01:56;;;;;;;8.02;2.30;;;17.70;88.90;;;;;;5009833;28;20080;-72
2021/07/31 04:04:21;;;;;;;4.40;1.98;;;17.70;89.10;;;;;;5017448;28;20496;-71
2021/07/31 04:06:47;;;;;;;7.47;2.50;;;17.70;89.10;;;;;;5015474;28;20081;-71
2021/07/31 04:09:13;;;;;;;5.95;2.70;;;17.70;88.70;;;;;;5014866;28;20048;-72
2021/07/31 04:11:38;;;;;;;5.40;2.22;;;17.70;88.40;;;;;;5015652;28;20488;-72
2021/07/31 04:14:04;;;;;;;5.80;2.47;;;17.70;88.60;;;;;;5016486;28;20026;-71
2021/07/31 04:16:30;;;;;;;5.97;2.40;;;17.70;88.30;;;;;;5017494;28;20041;-71
2021/07/31 04:18:55;;;;;;;4.78;2.40;;;17.80;88.20;;;;;;5017801;28;20103;-72
2021/07/31 04:21:21;;;;;;;5.03;2.65;;;17.70;88.00;;;;;;5013810;28;20103;-71
2021/07/31 04:23:47;;;;;;;3.50;2.15;;;17.70;87.90;;;;;;5018949;28;20529;-72
2021/07/31 04:26:14;;;;;;;5.85;2.50;;;17.70;88.10;;;;;;5013553;28;20380;-72
2021/07/31 04:28:41;;;;;;;6.30;2.10;;;17.80;87.80;;;;;;5019825;28;20525;-72
2021/07/31 04:31:11;;;;;;;18.42;2.63;;;17.70;87.70;;;;;;5016439;28;20042;-72
2021/07/31 04:33:37;;;;;;;4.40;2.20;;;17.80;88.00;;;;;;5015878;28;20483;-72
2021/07/31 04:36:03;;;;;;;6.90;2.53;;;17.70;87.80;;;;;;5017347;28;20030;-72
2021/07/31 04:38:30;;;;;;;6.60;2.30;;;17.80;87.90;;;;;;5020011;28;20079;-71
2021/07/31 04:40:56;;;;;;;4.80;2.40;;;17.60;88.10;;;;;;5019130;28;20068;-72
2021/07/31 04:43:22;;;;;;;4.95;2.05;;;17.60;88.10;;;;;;5018133;28;20072;-72
2021/07/31 04:45:48;;;;;;;7.22;2.58;;;17.60;87.90;;;;;;5019948;28;20025;-71
2021/07/31 04:48:13;;;;;;;3.95;2.10;;;17.70;87.10;;;;;;5023855;28;20029;-71
2021/07/31 04:50:40;;;;;;;6.63;2.55;;;17.70;87.60;;;;;;5023789;28;20037;-72
2021/07/31 04:53:05;;;;;;;5.70;2.22;;;17.70;87.10;;;;;;5021961;28;20033;-72
2021/07/31 04:55:31;;;;;;;4.55;1.95;;;17.70;87.50;;;;;;5018636;28;20518;-72
2021/07/31 04:57:57;;;;;;;4.53;2.10;;;17.70;87.50;;;;;;5019639;28;20091;-73
2021/07/31 05:00:22;;;;;;;5.65;2.47;;;17.70;87.40;;;;;;5016362;28;20112;-70
2021/07/31 05:02:48;;;;;;;5.35;2.00;;;17.80;87.60;;;;;;5017321;28;20387;-72
2021/07/31 05:05:14;;;;;;;5.47;2.15;;;17.70;87.60;;;;;;5023645;28;20037;-72
2021/07/31 05:07:41;;;;;;;8.18;2.80;;;17.70;87.00;;;;;;5017551;28;20037;-72
2021/07/31 05:10:07;;;;;;;4.88;2.15;;;17.70;87.30;;;;;;5022488;28;20057;-72
2021/07/31 05:12:33;;;;;;;6.20;2.45;;;17.70;87.50;;;;;;5021520;28;20034;-72
2021/07/31 05:14:59;;;;;;;6.30;2.10;;;17.70;87.40;;;;;;5023076;28;20567;-72
2021/07/31 05:17:25;;;;;;;5.97;2.35;;;17.80;87.50;;;;;;5019988;28;20594;-72
2021/07/31 05:19:50;;;;;;;5.63;2.15;;;17.90;86.50;;;;;;5018449;28;20033;-71
2021/07/31 05:22:16;;;;;;;5.47;2.05;;;17.90;86.50;;;;;;5019729;28;20496;-72
2021/07/31 05:24:42;;;;;;;5.72;2.08;;;18.00;85.80;;;;;;5022414;28;20483;-71
2021/07/31 05:27:08;;;;;;;5.75;2.15;;;17.90;86.30;;;;;;5013698;28;20078;-72
2021/07/31 05:29:34;;;;;;;5.57;2.40;;;17.90;86.50;;;;;;5019958;28;20077;-72
2021/07/31 05:32:00;;;;;;;5.63;2.20;;;17.90;86.60;;;;;;5020491;28;20084;-72
2021/07/31 05:34:26;;;;;;;9.55;2.97;;;17.90;86.30;;;;;;5017019;28;20476;-72
2021/07/31 05:36:51;;;;;;;8.63;2.28;;;17.80;86.30;;;;;;5018951;28;20535;-72
2021/07/31 05:39:17;;;;;;;8.02;3.13;;;17.90;85.80;;;;;;5018150;28;20498;-72
2021/07/31 05:41:43;;;;;;;7.78;2.60;;;17.80;86.00;;;;;;5021041;28;20494;-72
2021/07/31 05:44:08;;;;;;;4.82;2.17;;;17.90;85.60;;;;;;5020473;28;20026;-72
2021/07/31 05:46:34;;;;;;;6.03;2.35;;;17.80;86.10;;;;;;5019997;28;20036;-72
2021/07/31 05:49:00;;;;;;;6.75;1.90;;;17.80;85.40;;;;;;5018686;28;20571;-72
2021/07/31 05:51:25;;;;;;;5.93;2.00;;;17.80;85.30;;;;;;5020163;28;20037;-72
2021/07/31 05:53:51;;;;;;;6.82;1.98;;;17.80;85.70;;;;;;5019949;28;20049;-71
2021/07/31 05:56:17;;;;;;;5.22;1.80;;;17.90;85.30;;;;;;5019508;28;20500;-72
2021/07/31 05:58:43;;;;;;;7.00;2.15;;;17.80;85.70;;;;;;5019066;28;20036;-72
2021/07/31 06:01:10;;;;;;;5.75;1.70;;;17.70;85.80;;;;;;5013438;28;20040;-72
2021/07/31 06:03:36;;;;;;;8.60;2.03;;;17.70;85.90;;;;;;5019568;28;20491;-71
2021/07/31 06:06:03;;;;;;;5.78;1.70;;;17.80;85.70;;;;;;5019785;28;20037;-71
2021/07/31 06:08:29;;;;;;;7.68;2.15;;;17.80;85.70;;;;;;5017398;28;20032;-72
2021/07/31 06:11:05;;;;;;;4.53;1.70;;;17.90;85.00;;;;;;5019876;28;20034;-72
2021/07/31 06:13:31;;;;;;;5.78;1.73;;;17.90;85.40;;;;;;5020150;28;20034;-72
2021/07/31 06:15:57;;;;;;;3.47;2.28;;;17.90;85.10;;;;;;5016625;28;20192;-72
2021/07/31 06:18:24;;;;;;;6.70;1.63;;;18.00;85.00;;;;;;5016053;28;20528;-72
2021/07/31 06:20:50;;;;;;;6.97;2.20;;;18.00;84.80;;;;;;5015172;28;20049;-72
2021/07/31 06:23:17;;;;;;;5.10;2.17;;;18.00;84.20;;;;;;5018811;28;20037;-72
2021/07/31 06:25:42;;;;;;;5.70;1.98;;;18.00;84.50;;;;;;5019682;28;20029;-71
2021/07/31 06:28:08;;;;;;;4.20;1.88;;;18.10;84.40;;;;;;5017866;28;20036;-72
2021/07/31 06:30:34;;;;;;;7.75;2.03;;;18.10;83.90;;;;;;5018946;28;20495;-72
2021/07/31 06:32:59;;;;;;;6.47;2.33;;;18.10;84.40;;;;;;5018314;28;20026;-72
2021/07/31 06:35:25;;;;;;;10.95;2.25;;;18.10;83.80;;;;;;5020374;28;20053;-73
2021/07/31 06:37:52;;;;;;;10.02;2.33;;;18.00;84.10;;;;;;5015618;28;20484;-72
2021/07/31 06:40:17;;;;;;;7.80;1.85;;;18.00;83.80;;;;;;5018356;28;20546;-72
2021/07/31 06:42:43;;;;;;;6.85;1.95;;;18.10;83.90;;;;;;5018849;28;20065;-72
2021/07/31 06:45:09;;;;;;;4.72;1.90;;;18.00;83.80;;;;;;5016733;28;20065;-72
2021/07/31 06:47:35;;;;;;;5.18;1.95;;;18.00;83.60;;;;;;5016570;28;20483;-72
2021/07/31 06:50:00;;;;;;;3.78;1.77;;;18.00;83.80;;;;;;5018885;28;20033;-72
2021/07/31 06:52:26;;;;;;;3.88;2.10;;;18.00;83.90;;;;;;5019513;28;20049;-72
2021/07/31 06:54:52;;;;;;;6.63;2.65;;;18.00;83.60;;;;;;5018761;28;20029;-72
2021/07/31 06:57:18;;;;;;;7.47;2.53;;;18.10;83.80;;;;;;5016676;28;20026;-72
2021/07/31 06:59:43;;;;;;;5.22;1.80;;;18.20;83.50;;;;;;5016471;28;20408;-71
2021/07/31 07:02:09;;;;;;;3.75;2.00;;;18.30;83.10;;;;;;5012935;28;20064;-72
2021/07/31 07:05:02;;;;;;;8.38;2.45;;;18.30;82.90;;;;;;5017952;28;20033;-72
2021/07/31 07:07:28;;;;;;;8.45;2.30;;;18.40;82.40;;;;;;5016883;28;20030;-71
2021/07/31 07:09:54;;;;;;;7.82;2.15;;;18.40;82.40;;;;;;5020219;28;20033;-72
2021/07/31 07:12:19;;;;;;;5.05;1.90;;;18.40;82.40;;;;;;5019671;28;20064;-71
2021/07/31 07:14:45;;;;;;;6.72;2.22;;;18.40;82.80;;;;;;5016780;28;20040;-72
2021/07/31 07:17:11;;;;;;;10.02;2.58;;;18.50;83.20;;;;;;5011867;28;20034;-72
2021/07/31 07:19:37;;;;;;;4.47;1.80;;;18.40;81.90;;;;;;5018934;28;20032;-72
2021/07/31 07:22:03;;;;;;;8.77;2.88;;;18.50;82.30;;;;;;5015241;28;20030;-72
2021/07/31 07:24:28;;;;;;;5.95;1.92;;;18.50;82.40;;;;;;5020538;28;20034;-72
2021/07/31 07:26:54;;;;;;;6.00;1.80;;;18.40;82.60;;;;;;5017075;28;20034;-72
2021/07/31 07:29:20;;;;;;;7.65;2.40;;;18.50;82.70;;;;;;5016604;28;20080;-72
2021/07/31 07:31:45;;;;;;;6.13;1.98;;;18.60;82.30;;;;;;5018772;28;20113;-72
2021/07/31 07:34:11;;;;;;;7.35;2.20;;;18.60;82.00;;;;;;5019910;28;20041;-72
2021/07/31 07:36:37;;;;;;;4.32;1.83;;;18.60;82.70;;;;;;5016578;28;20034;-72
2021/07/31 07:39:02;;;;;;;7.10;2.53;;;18.50;82.60;;;;;;5015345;28;20466;-72
2021/07/31 07:41:28;;;;;;;4.90;2.33;;;18.50;82.40;;;;;;5017439;28;20033;-72
2021/07/31 07:43:54;;;;;;;6.70;2.17;;;18.50;82.50;;;;;;5015759;28;20030;-72
2021/07/31 07:46:20;;;;;;;5.97;2.15;;;18.50;82.90;;;;;;5018987;28;20112;-72
2021/07/31 07:48:46;;;;;;;6.90;2.13;;;18.50;82.50;;;;;;5015101;28;20042;-72
2021/07/31 07:51:12;;;;;;;6.80;2.00;;;18.60;82.00;;;;;;5019170;28;20057;-72
2021/07/31 07:53:38;;;;;;;6.03;1.90;;;18.60;82.20;;;;;;5015148;28;20029;-72
2021/07/31 07:56:04;;;;;;;5.22;1.63;;;18.60;82.10;;;;;;5015116;28;20084;-73
2021/07/31 07:58:30;;;;;;;8.32;2.10;;;18.70;82.20;;;;;;5016116;28;20029;-72
2021/07/31 08:00:56;;;;;;;4.63;1.80;;;18.70;81.80;;;;;;5015592;28;20123;-73
2021/07/31 08:03:21;;;;;;;3.78;1.63;;;18.70;81.90;;;;;;5016444;28;20033;-71
2021/07/31 08:05:47;;;;;;;3.70;1.63;;;18.70;82.40;;;;;;5015657;28;20055;-71
2021/07/31 08:08:14;;;;;;;4.05;1.98;;;18.70;81.70;;;;;;5015018;28;20511;-71
2021/07/31 08:10:39;;;;;;;7.97;1.88;;;18.70;82.10;;;;;;5014965;28;20034;-71
2021/07/31 08:13:05;;;;;;;4.18;2.03;;;18.70;82.60;;;;;;5018435;28;20099;-72
2021/07/31 08:15:31;;;;;;;3.05;1.50;;;18.60;83.00;;;;;;5021028;28;20481;-72
2021/07/31 08:17:57;;;;;;;3.53;1.42;;;18.60;83.10;;;;;;4998799;28;20030;-72
2021/07/31 08:20:23;;;;;;;5.47;1.50;;;18.70;83.30;;;;;;5014168;28;20026;-74
2021/07/31 08:22:49;;;;;;;4.30;1.80;;;18.80;83.00;;;;;;5018295;28;20112;-72
2021/07/31 08:25:15;;;;;;;4.05;2.00;;;18.90;83.10;;;;;;5019692;28;20034;-72
2021/07/31 08:27:40;;;;;;;4.10;1.70;;;19.00;82.20;;;;;;5015668;28;20105;-71
2021/07/31 08:30:07;;;;;;;5.40;2.00;;;19.00;82.30;;;;;;5013095;28;20033;-73
2021/07/31 08:32:33;;;;;;;6.50;2.22;;;19.00;82.40;;;;;;5017504;28;20530;-72
2021/07/31 08:35:02;;;;;;;6.55;1.90;;;19.10;82.50;;;;;;5016672;28;20037;-71
2021/07/31 08:37:28;;;;;;;13.27;3.13;;;19.20;82.00;;;;;;5018428;28;20101;-71
2021/07/31 08:39:54;;;;;;;2.72;1.60;;;19.10;81.70;;;;;;5015009;28;20017;-71
2021/07/31 08:42:20;;;;;;;3.55;2.33;;;19.10;81.80;;;;;;5015838;28;20028;-70
2021/07/31 08:44:46;;;;;;;4.47;2.00;;;19.20;82.00;;;;;;5010394;28;20029;-72
2021/07/31 08:47:13;;;;;;;3.85;1.90;;;19.10;82.10;;;;;;5011257;28;20034;-71
2021/07/31 08:49:43;;;;;;;9.20;2.28;;;19.10;82.10;;;;;;5019862;28;20077;-72
2021/07/31 08:52:09;;;;;;;9.27;2.33;;;19.00;82.00;;;;;;5018543;28;20399;-74
2021/07/31 08:54:39;;;;;;;4.13;1.92;;;19.00;82.10;;;;;;5010793;28;20037;-72
2021/07/31 08:57:06;;;;;;;5.10;1.80;;;19.00;82.00;;;;;;5017267;28;20148;-71
2021/07/31 08:59:32;;;;;;;5.88;1.63;;;19.10;81.40;;;;;;5014408;28;20037;-74
2021/07/31 09:01:58;;;;;;;2.90;2.00;;;19.10;82.20;;;;;;5001724;28;20424;-72
2021/07/31 09:04:24;;;;;;;4.28;1.70;;;19.20;82.00;;;;;;5009334;28;20083;-69
2021/07/31 09:06:50;;;;;;;4.80;2.00;;;19.20;81.30;;;;;;5010853;28;20033;-68
2021/07/31 09:09:27;;;;;;;5.03;1.67;;;19.30;81.70;;;;;;5008590;28;20681;-69
2021/07/31 09:12:04;;;;;;;6.75;2.08;;;19.40;81.50;;;;;;5011490;28;20548;-70
2021/07/31 09:14:31;;;;;;;4.95;2.33;;;19.40;80.30;;;;;;5008449;28;20048;-69
2021/07/31 09:16:58;;;;;;;4.68;2.10;;;19.40;80.90;;;;;;5008698;28;20037;-68
2021/07/31 09:19:28;;;;;;;4.82;1.88;;;19.40;80.60;;;;;;5006441;28;20037;-68
2021/07/31 09:22:08;;;;;;;8.97;2.10;;;19.50;80.60;;;;;;5004388;28;20030;-70
2021/07/31 09:24:35;;;;;;;7.50;2.13;;;19.50;80.40;;;;;;5005365;28;20109;-68
2021/07/31 09:27:01;;;;;;;3.47;1.63;;;19.60;79.50;;;;;;5005041;28;20033;-71
2021/07/31 09:29:27;;;;;;;4.13;2.28;;;19.80;79.20;;;;;;5008979;28;21442;-69
2021/07/31 09:31:56;;;;;;;5.30;1.90;;;19.90;79.30;;;;;;5009978;28;20119;-68
2021/07/31 09:34:28;;;;;;;4.57;1.80;;;20.00;78.30;;;;;;5009521;28;20034;-68
2021/07/31 09:37:07;;;;;;;5.78;2.13;;;20.10;78.60;;;;;;5004150;28;20056;-67
2021/07/31 09:39:57;;;;;;;7.72;2.38;;;20.10;78.50;;;;;;5009197;28;20022;-72
2021/07/31 09:42:33;;;;;;;5.05;2.20;;;20.00;78.10;;;;;;5008440;28;20034;-72
2021/07/31 09:45:11;;;;;;;9.07;2.95;;;20.10;78.20;;;;;;5004575;28;20044;-72
2021/07/31 09:47:39;;;;;;;4.55;1.90;;;20.00;78.10;;;;;;5001825;28;20587;-72
2021/07/31 09:50:05;;;;;;;3.45;1.70;;;19.70;77.80;;;;;;5008831;28;20103;-72
2021/07/31 09:52:32;;;;;;;4.28;2.10;;;19.60;78.30;;;;;;5017140;28;20029;-75
2021/07/31 09:54:58;;;;;;;5.68;1.80;;;19.60;78.80;;;;;;5012545;28;20118;-73
2021/07/31 09:57:27;;;;;;;4.30;2.15;;;19.50;79.00;;;;;;5007576;28;20057;-73
2021/07/31 09:59:56;;;;;;;6.35;2.33;;;19.50;79.10;;;;;;5012771;28;20035;-72
2021/07/31 10:02:22;;;;;;;5.22;1.88;;;19.50;79.50;;;;;;5011252;28;20690;-73
2021/07/31 10:04:50;;;;;;;4.40;2.28;;;19.50;78.60;;;;;;5012449;28;20100;-73
2021/07/31 10:07:17;;;;;;;4.05;1.85;;;19.40;79.40;;;;;;5003070;28;20031;-73
2021/07/31 10:09:49;;;;;;;4.80;2.25;;;19.40;80.00;;;;;;5006890;28;20061;-73
2021/07/31 10:12:17;;;;;;;4.93;2.17;;;19.20;81.50;;;;;;5008986;28;20041;-72
2021/07/31 10:14:44;;;;;;;6.28;2.40;;;19.20;82.60;;;;;;5011225;28;20039;-73
2021/07/31 10:17:10;;;;;;;5.18;2.10;;;19.20;82.60;;;;;;5012193;28;20107;-73
2021/07/31 10:19:41;;;;;;;6.03;2.00;;;19.10;82.50;;;;;;5015392;28;20057;-73
2021/07/31 10:22:08;;;;;;;3.65;2.10;;;19.00;82.60;;;;;;5033906;28;20040;-73
2021/07/31 10:24:59;;;;;;;4.25;2.03;;;19.10;82.40;;;;;;5018243;28;20025;-73
2021/07/31 10:27:25;;;;;;;3.47;1.98;;;19.30;82.80;;;;;;5011574;28;20088;-73
2021/07/31 10:29:53;;;;;;;5.72;2.50;;;19.40;82.00;;;;;;5024850;28;20040;-74
2021/07/31 10:32:22;;;;;;;4.70;2.45;;;19.50;81.00;;;;;;5016210;28;20033;-72
2021/07/31 10:34:48;;;;;;;4.93;2.25;;;19.50;81.10;;;;;;5012811;28;20026;-73
2021/07/31 10:37:29;;;;;;;4.07;1.63;;;19.40;80.60;;;;;;5020656;28;20054;-73
2021/07/31 10:40:06;;;;;;;7.35;2.70;;;19.50;79.10;;;;;;5015226;28;20113;-73
2021/07/31 10:42:53;;;;;;;4.55;2.35;;;19.40;79.60;;;;;;5017358;28;20021;-72
2021/07/31 10:45:24;;;;;;;6.43;2.17;;;19.30;79.90;;;;;;5021600;28;20068;-73
2021/07/31 10:47:51;;;;;;;4.63;1.90;;;19.30;80.50;;;;;;5015570;28;20029;-73
2021/07/31 10:50:23;;;;;;;4.13;1.70;;;19.30;81.00;;;;;;5022270;28;20442;-73
2021/07/31 10:52:50;;;;;;;5.90;1.90;;;19.40;81.40;;;;;;5016906;28;20026;-73
2021/07/31 10:55:17;;;;;;;4.28;2.22;;;19.40;83.10;;;;;;5013148;28;20037;-73
2021/07/31 10:57:52;;;;;;;6.60;2.60;;;19.50;82.80;;;;;;5017652;28;20022;-73
2021/07/31 11:00:25;;;;;;;6.07;1.95;;;19.70;82.50;;;;;;5019186;28;20036;-73
2021/07/31 11:02:51;;;;;;;7.05;1.83;;;19.90;82.20;;;;;;5017082;28;20032;-73
2021/07/31 11:05:17;;;;;;;5.10;1.98;;;19.90;82.40;;;;;;5016123;28;20037;-73
2021/07/31 11:07:58;;;;;;;5.28;1.70;;;19.90;81.30;;;;;;5018933;28;20048;-72
2021/07/31 11:10:45;;;;;;;5.70;1.98;;;20.00;81.50;;;;;;5019530;28;20074;-74
2021/07/31 11:13:17;;;;;;;5.57;1.90;;;20.00;81.10;;;;;;5019003;28;20435;-73
2021/07/31 11:16:06;;;;;;;3.80;2.03;;;20.00;80.40;;;;;;5018173;28;20056;-73
2021/07/31 11:18:35;;;;;;;4.30;1.85;;;19.90;79.80;;;;;;5015463;28;20380;-73
2021/07/31 11:21:19;;;;;;;5.38;1.70;;;20.00;81.90;;;;;;5017971;28;20479;-73
2021/07/31 11:23:49;;;;;;;2.78;1.58;;;20.10;81.00;;;;;;5018954;28;20559;-73
2021/07/31 11:26:43;;;;;;;3.95;1.40;;;20.00;80.00;;;;;;5016531;28;20482;-73
2021/07/31 11:29:19;;;;;;;4.15;1.38;;;20.00;80.40;;;;;;5020247;28;20109;-73
2021/07/31 11:31:59;;;;;;;3.38;1.70;;;20.00;80.20;;;;;;5020761;28;20040;-73
2021/07/31 11:34:25;;;;;;;6.07;1.40;;;20.20;80.40;;;;;;5016445;28;20392;-73
2021/07/31 11:36:56;;;;;;;3.83;1.38;;;20.50;79.00;;;;;;5015962;28;20028;-73
2021/07/31 11:39:22;;;;;;;3.92;1.30;;;20.80;77.30;;;;;;5013062;28;20036;-73
2021/07/31 11:41:48;;;;;;;2.85;1.10;;;21.10;76.90;;;;;;5026632;28;20432;-73
2021/07/31 11:44:28;;;;;;;4.13;1.35;;;21.10;76.10;;;;;;5018519;28;20037;-73
2021/07/31 11:46:54;;;;;;;5.80;1.30;;;21.10;76.00;;;;;;5015981;28;20038;-73
2021/07/31 11:49:29;;;;;;;3.45;1.40;;;21.20;76.40;;;;;;5016365;28;20038;-73
2021/07/31 11:51:56;;;;;;;3.53;1.10;;;21.10;75.40;;;;;;5014130;28;20030;-73
2021/07/31 11:54:22;;;;;;;4.00;1.30;;;20.90;76.50;;;;;;5016527;28;20030;-73
2021/07/31 11:56:50;;;;;;;3.80;1.55;;;20.70;76.50;;;;;;4997993;28;20118;-73
2021/07/31 11:59:29;;;;;;;4.25;1.10;;;20.60;77.20;;;;;;5014510;28;20044;-73
2021/07/31 12:01:56;;;;;;;7.45;1.70;;;20.70;77.90;;;;;;5012000;28;20056;-73
2021/07/31 12:04:43;;;;;;;4.68;1.42;;;20.60;77.10;;;;;;5022280;28;20027;-73
2021/07/31 12:07:16;;;;;;;5.43;1.45;;;20.50;77.50;;;;;;5017566;28;20407;-73
2021/07/31 12:09:55;;;;;;;3.22;1.10;;;20.50;76.90;;;;;;5012351;28;20156;-73
2021/07/31 12:12:30;;;;;;;5.15;1.25;;;20.60;77.00;;;;;;5015382;28;20488;-73
2021/07/31 12:15:07;;;;;;;3.72;1.05;;;20.90;76.30;;;;;;5010514;28;20037;-73
2021/07/31 12:17:33;;;;;;;4.53;1.17;;;20.80;76.60;;;;;;5006968;28;20026;-73
2021/07/31 12:19:59;;;;;;;2.67;1.02;;;20.60;77.90;;;;;;5012143;28;20534;-73
2021/07/31 12:22:34;;;;;;;4.45;1.23;;;20.50;79.30;;;;;;5014154;28;20097;-73
2021/07/31 12:25:10;;;;;;;2.97;1.00;;;20.50;79.90;;;;;;5016322;28;20018;-73
2021/07/31 12:27:57;;;;;;;4.50;1.33;;;20.40;79.10;;;;;;5014222;28;20030;-72
2021/07/31 12:30:37;;;;;;;4.18;1.20;;;20.30;79.80;;;;;;5018845;28;20067;-73
2021/07/31 12:33:06;;;;;;;3.17;1.50;;;20.20;80.40;;;;;;5014053;28;20029;-73
2021/07/31 12:35:48;;;;;;;2.67;1.13;;;20.10;81.10;;;;;;5008996;28;20037;-73
2021/07/31 12:38:19;;;;;;;3.80;1.00;;;20.10;81.40;;;;;;5011268;28;20025;-73
2021/07/31 12:40:46;;;;;;;2.55;1.30;;;20.10;81.10;;;;;;5010835;28;20394;-73
2021/07/31 12:43:16;;;;;;;2.80;1.20;;;20.10;80.90;;;;;;5014899;28;20037;-73
2021/07/31 12:45:44;;;;;;;4.53;1.35;;;20.20;81.50;;;;;;5008497;28;20123;-73
2021/07/31 12:48:14;;;;;;;4.35;1.52;;;20.10;81.70;;;;;;5017674;28;20064;-73
2021/07/31 12:50:43;;;;;;;5.25;1.40;;;20.10;82.40;;;;;;5016443;28;20034;-73